sensor_id;sensor_type;location;lat;lon;timestamp;temperature;humidity
69776;DHT22;57049;51.450;-2.516;2023-05-10T00:01:29;10.71;99.05
69776;DHT22;57049;51.450;-2.516;2023-05-10T00:03:54;10.71;98.96
69776;DHT22;57049;51.450;-2.516;2023-05-10T00:06:20;10.76;98.93
69776;DHT22;57049;51.450;-2.516;2023-05-10T00:08:45;10.76;98.93
69776;DHT22;57049;51.450;-2.516;2023-05-10T00:11:11;10.78;98.97
69776;DHT22;57049;51.450;-2.516;2023-05-10T00:13:36;10.82;98.88
69776;DHT22;57049;51.450;-2.516;2023-05-10T00:16:02;10.86;98.91
69776;DHT22;57049;51.450;-2.516;2023-05-10T00:18:27;10.85;98.83
69776;DHT22;57049;51.450;-2.516;2023-05-10T00:20:53;10.89;98.80
69776;DHT22;57049;51.450;-2.516;2023-05-10T00:23:18;10.95;98.73
69776;DHT22;57049;51.450;-2.516;2023-05-10T00:25:44;10.95;98.79
69776;DHT22;57049;51.450;-2.516;2023-05-10T00:28:09;10.94;98.82
69776;DHT22;57049;51.450;-2.516;2023-05-10T00:30:35;10.99;98.71
69776;DHT22;57049;51.450;-2.516;2023-05-10T00:33:00;10.99;98.83
69776;DHT22;57049;51.450;-2.516;2023-05-10T00:35:26;11.06;98.69
69776;DHT22;57049;51.450;-2.516;2023-05-10T00:37:51;11.01;98.71
69776;DHT22;57049;51.450;-2.516;2023-05-10T00:40:17;10.98;98.68
69776;DHT22;57049;51.450;-2.516;2023-05-10T00:42:42;10.96;98.70
69776;DHT22;57049;51.450;-2.516;2023-05-10T00:45:08;11.02;98.67
69776;DHT22;57049;51.450;-2.516;2023-05-10T00:47:34;11.01;98.53
69776;DHT22;57049;51.450;-2.516;2023-05-10T00:50:00;11.03;98.50
69776;DHT22;57049;51.450;-2.516;2023-05-10T00:52:28;11.06;98.48
69776;DHT22;57049;51.450;-2.516;2023-05-10T00:54:55;11.05;98.46
69776;DHT22;57049;51.450;-2.516;2023-05-10T00:57:22;11.08;98.47
69776;DHT22;57049;51.450;-2.516;2023-05-10T00:59:48;11.06;98.39
69776;DHT22;57049;51.450;-2.516;2023-05-10T01:02:13;11.12;98.34
69776;DHT22;57049;51.450;-2.516;2023-05-10T01:04:39;11.09;98.23
69776;DHT22;57049;51.450;-2.516;2023-05-10T01:07:05;11.09;98.23
69776;DHT22;57049;51.450;-2.516;2023-05-10T01:09:31;11.11;98.38
69776;DHT22;57049;51.450;-2.516;2023-05-10T01:11:58;11.06;98.29
69776;DHT22;57049;51.450;-2.516;2023-05-10T01:14:24;11.05;98.21
69776;DHT22;57049;51.450;-2.516;2023-05-10T01:16:52;11.08;98.21
69776;DHT22;57049;51.450;-2.516;2023-05-10T01:19:22;11.05;98.09
69776;DHT22;57049;51.450;-2.516;2023-05-10T01:35:37;10.94;98.21
69776;DHT22;57049;51.450;-2.516;2023-05-10T01:41:19;11.02;98.13
69776;DHT22;57049;51.450;-2.516;2023-05-10T01:44:10;11.03;97.89
69776;DHT22;57049;51.450;-2.516;2023-05-10T01:46:40;11.06;98.05
69776;DHT22;57049;51.450;-2.516;2023-05-10T01:49:29;10.99;98.03
69776;DHT22;57049;51.450;-2.516;2023-05-10T01:52:00;10.98;98.06
69776;DHT22;57049;51.450;-2.516;2023-05-10T01:54:28;10.95;98.07
69776;DHT22;57049;51.450;-2.516;2023-05-10T01:57:00;10.91;98.11
69776;DHT22;57049;51.450;-2.516;2023-05-10T01:59:34;10.95;98.05
69776;DHT22;57049;51.450;-2.516;2023-05-10T02:02:10;10.91;98.05
69776;DHT22;57049;51.450;-2.516;2023-05-10T02:04:38;10.84;98.11
69776;DHT22;57049;51.450;-2.516;2023-05-10T02:07:05;10.81;98.16
69776;DHT22;57049;51.450;-2.516;2023-05-10T02:09:32;10.74;98.15
69776;DHT22;57049;51.450;-2.516;2023-05-10T02:12:01;10.68;98.28
69776;DHT22;57049;51.450;-2.516;2023-05-10T02:14:28;10.76;98.37
69776;DHT22;57049;51.450;-2.516;2023-05-10T02:16:59;10.81;98.21
69776;DHT22;57049;51.450;-2.516;2023-05-10T02:19:28;10.79;98.26
69776;DHT22;57049;51.450;-2.516;2023-05-10T02:21:55;10.82;98.19
69776;DHT22;57049;51.450;-2.516;2023-05-10T02:24:21;10.79;98.23
69776;DHT22;57049;51.450;-2.516;2023-05-10T02:26:48;10.81;98.13
69776;DHT22;57049;51.450;-2.516;2023-05-10T02:29:18;10.82;98.24
69776;DHT22;57049;51.450;-2.516;2023-05-10T02:31:45;10.84;98.20
69776;DHT22;57049;51.450;-2.516;2023-05-10T02:34:11;10.84;98.24
69776;DHT22;57049;51.450;-2.516;2023-05-10T02:36:38;10.91;98.10
69776;DHT22;57049;51.450;-2.516;2023-05-10T02:39:04;10.92;98.08
69776;DHT22;57049;51.450;-2.516;2023-05-10T02:41:35;10.92;98.03
69776;DHT22;57049;51.450;-2.516;2023-05-10T02:44:02;10.96;97.98
69776;DHT22;57049;51.450;-2.516;2023-05-10T02:46:29;10.96;97.96
69776;DHT22;57049;51.450;-2.516;2023-05-10T02:48:55;10.92;97.91
69776;DHT22;57049;51.450;-2.516;2023-05-10T02:51:24;10.89;98.01
69776;DHT22;57049;51.450;-2.516;2023-05-10T02:53:53;10.96;97.94
69776;DHT22;57049;51.450;-2.516;2023-05-10T02:56:34;11.01;97.90
69776;DHT22;57049;51.450;-2.516;2023-05-10T02:59:04;11.02;97.84
69776;DHT22;57049;51.450;-2.516;2023-05-10T03:01:30;11.08;97.74
69776;DHT22;57049;51.450;-2.516;2023-05-10T03:03:55;11.05;97.67
69776;DHT22;57049;51.450;-2.516;2023-05-10T03:06:21;11.02;97.46
69776;DHT22;57049;51.450;-2.516;2023-05-10T03:08:46;11.02;97.67
69776;DHT22;57049;51.450;-2.516;2023-05-10T03:11:37;11.02;97.34
69776;DHT22;57049;51.450;-2.516;2023-05-10T03:17:08;10.96;97.60
69776;DHT22;57049;51.450;-2.516;2023-05-10T03:20:06;11.02;97.57
69776;DHT22;57049;51.450;-2.516;2023-05-10T03:22:37;11.03;97.56
69776;DHT22;57049;51.450;-2.516;2023-05-10T03:25:08;11.02;97.62
69776;DHT22;57049;51.450;-2.516;2023-05-10T03:27:39;11.03;97.55
69776;DHT22;57049;51.450;-2.516;2023-05-10T03:30:08;11.03;97.53
69776;DHT22;57049;51.450;-2.516;2023-05-10T03:32:34;10.98;97.57
69776;DHT22;57049;51.450;-2.516;2023-05-10T03:35:00;10.91;97.60
69776;DHT22;57049;51.450;-2.516;2023-05-10T03:37:25;10.94;97.68
69776;DHT22;57049;51.450;-2.516;2023-05-10T03:39:50;10.88;97.73
69776;DHT22;57049;51.450;-2.516;2023-05-10T03:42:16;10.89;97.63
69776;DHT22;57049;51.450;-2.516;2023-05-10T03:44:43;10.89;97.68
69776;DHT22;57049;51.450;-2.516;2023-05-10T03:47:08;10.89;97.71
69776;DHT22;57049;51.450;-2.516;2023-05-10T03:49:34;10.86;97.95
69776;DHT22;57049;51.450;-2.516;2023-05-10T03:51:59;10.91;97.93
69776;DHT22;57049;51.450;-2.516;2023-05-10T03:54:24;10.89;97.97
69776;DHT22;57049;51.450;-2.516;2023-05-10T03:56:50;10.88;97.88
69776;DHT22;57049;51.450;-2.516;2023-05-10T03:59:16;10.88;97.86
69776;DHT22;57049;51.450;-2.516;2023-05-10T04:01:41;10.76;97.90
69776;DHT22;57049;51.450;-2.516;2023-05-10T04:04:07;10.72;97.93
69776;DHT22;57049;51.450;-2.516;2023-05-10T04:06:32;10.78;97.88
69776;DHT22;57049;51.450;-2.516;2023-05-10T04:08:58;10.72;97.83
69776;DHT22;57049;51.450;-2.516;2023-05-10T04:11:25;10.74;97.94
69776;DHT22;57049;51.450;-2.516;2023-05-10T04:13:51;10.74;97.93
69776;DHT22;57049;51.450;-2.516;2023-05-10T04:16:16;10.78;97.84
69776;DHT22;57049;51.450;-2.516;2023-05-10T04:18:42;10.71;98.09
69776;DHT22;57049;51.450;-2.516;2023-05-10T04:21:14;10.64;98.08
69776;DHT22;57049;51.450;-2.516;2023-05-10T04:23:39;10.62;98.10
69776;DHT22;57049;51.450;-2.516;2023-05-10T04:26:05;10.61;98.09
69776;DHT22;57049;51.450;-2.516;2023-05-10T04:28:31;10.52;98.18
69776;DHT22;57049;51.450;-2.516;2023-05-10T04:31:03;10.51;98.28
69776;DHT22;57049;51.450;-2.516;2023-05-10T04:33:29;10.48;98.16
69776;DHT22;57049;51.450;-2.516;2023-05-10T04:35:55;10.41;98.19
69776;DHT22;57049;51.450;-2.516;2023-05-10T04:38:21;10.33;98.25
69776;DHT22;57049;51.450;-2.516;2023-05-10T04:40:46;10.29;98.45
69776;DHT22;57049;51.450;-2.516;2023-05-10T04:43:11;10.37;98.30
69776;DHT22;57049;51.450;-2.516;2023-05-10T04:45:37;10.34;98.24
69776;DHT22;57049;51.450;-2.516;2023-05-10T04:48:03;10.41;98.29
69776;DHT22;57049;51.450;-2.516;2023-05-10T04:50:28;10.44;98.33
69776;DHT22;57049;51.450;-2.516;2023-05-10T04:52:54;10.54;98.33
69776;DHT22;57049;51.450;-2.516;2023-05-10T04:55:19;10.58;98.21
69776;DHT22;57049;51.450;-2.516;2023-05-10T04:57:45;10.62;98.21
69776;DHT22;57049;51.450;-2.516;2023-05-10T05:00:11;10.74;98.04
69776;DHT22;57049;51.450;-2.516;2023-05-10T05:02:36;10.85;97.90
69776;DHT22;57049;51.450;-2.516;2023-05-10T05:05:02;10.89;97.79
69776;DHT22;57049;51.450;-2.516;2023-05-10T05:07:27;10.96;97.80
69776;DHT22;57049;51.450;-2.516;2023-05-10T05:09:53;11.06;97.62
69776;DHT22;57049;51.450;-2.516;2023-05-10T05:12:18;11.13;97.41
69776;DHT22;57049;51.450;-2.516;2023-05-10T05:14:44;11.19;97.42
69776;DHT22;57049;51.450;-2.516;2023-05-10T05:17:09;11.32;97.29
69776;DHT22;57049;51.450;-2.516;2023-05-10T05:19:34;11.29;96.90
69776;DHT22;57049;51.450;-2.516;2023-05-10T05:22:01;11.19;96.69
69776;DHT22;57049;51.450;-2.516;2023-05-10T05:24:26;11.19;96.40
69776;DHT22;57049;51.450;-2.516;2023-05-10T05:26:52;11.32;96.22
69776;DHT22;57049;51.450;-2.516;2023-05-10T05:29:17;11.47;96.22
69776;DHT22;57049;51.450;-2.516;2023-05-10T05:31:42;11.60;95.65
69776;DHT22;57049;51.450;-2.516;2023-05-10T05:34:08;11.83;95.30
69776;DHT22;57049;51.450;-2.516;2023-05-10T05:36:36;12.44;94.83
69776;DHT22;57049;51.450;-2.516;2023-05-10T05:39:03;13.04;92.26
69776;DHT22;57049;51.450;-2.516;2023-05-10T05:41:29;13.78;90.93
69776;DHT22;57049;51.450;-2.516;2023-05-10T05:43:54;14.12;87.19
69776;DHT22;57049;51.450;-2.516;2023-05-10T05:46:20;14.81;84.92
69776;DHT22;57049;51.450;-2.516;2023-05-10T05:48:45;15.65;83.47
69776;DHT22;57049;51.450;-2.516;2023-05-10T05:51:11;16.18;81.01
69776;DHT22;57049;51.450;-2.516;2023-05-10T05:53:36;16.81;78.50
69776;DHT22;57049;51.450;-2.516;2023-05-10T05:56:02;17.16;77.38
69776;DHT22;57049;51.450;-2.516;2023-05-10T05:58:27;16.13;78.03
69776;DHT22;57049;51.450;-2.516;2023-05-10T06:00:53;15.52;80.34
69776;DHT22;57049;51.450;-2.516;2023-05-10T06:03:19;15.25;81.88
69776;DHT22;57049;51.450;-2.516;2023-05-10T06:05:44;15.31;82.50
69776;DHT22;57049;51.450;-2.516;2023-05-10T06:08:10;14.83;83.48
69776;DHT22;57049;51.450;-2.516;2023-05-10T06:10:36;15.32;83.63
69776;DHT22;57049;51.450;-2.516;2023-05-10T06:13:02;16.00;82.45
69776;DHT22;57049;51.450;-2.516;2023-05-10T06:15:27;16.36;80.93
69776;DHT22;57049;51.450;-2.516;2023-05-10T06:17:53;16.23;80.11
69776;DHT22;57049;51.450;-2.516;2023-05-10T06:20:18;15.89;80.39
69776;DHT22;57049;51.450;-2.516;2023-05-10T06:22:44;15.83;80.80
69776;DHT22;57049;51.450;-2.516;2023-05-10T06:25:09;16.74;79.20
69776;DHT22;57049;51.450;-2.516;2023-05-10T06:27:35;17.87;76.87
69776;DHT22;57049;51.450;-2.516;2023-05-10T06:30:01;18.99;74.74
69776;DHT22;57049;51.450;-2.516;2023-05-10T06:32:27;19.47;70.36
69776;DHT22;57049;51.450;-2.516;2023-05-10T06:34:53;18.48;72.20
69776;DHT22;57049;51.450;-2.516;2023-05-10T06:37:18;17.87;74.04
69776;DHT22;57049;51.450;-2.516;2023-05-10T06:39:44;17.38;75.41
69776;DHT22;57049;51.450;-2.516;2023-05-10T06:42:09;17.28;76.64
69776;DHT22;57049;51.450;-2.516;2023-05-10T06:44:35;17.14;76.49
69776;DHT22;57049;51.450;-2.516;2023-05-10T06:47:00;17.33;75.99
69776;DHT22;57049;51.450;-2.516;2023-05-10T06:49:26;18.22;74.41
69776;DHT22;57049;51.450;-2.516;2023-05-10T06:51:51;17.84;74.13
69776;DHT22;57049;51.450;-2.516;2023-05-10T06:54:17;17.74;74.89
69776;DHT22;57049;51.450;-2.516;2023-05-10T06:56:43;17.45;75.40
69776;DHT22;57049;51.450;-2.516;2023-05-10T06:59:08;17.22;75.97
69776;DHT22;57049;51.450;-2.516;2023-05-10T07:01:34;16.71;77.66
69776;DHT22;57049;51.450;-2.516;2023-05-10T07:03:59;16.02;79.22
69776;DHT22;57049;51.450;-2.516;2023-05-10T07:06:24;15.63;80.65
69776;DHT22;57049;51.450;-2.516;2023-05-10T07:08:50;15.38;81.88
69776;DHT22;57049;51.450;-2.516;2023-05-10T07:11:15;15.11;82.65
69776;DHT22;57049;51.450;-2.516;2023-05-10T07:13:41;14.95;83.40
69776;DHT22;57049;51.450;-2.516;2023-05-10T07:16:09;14.64;84.16
69776;DHT22;57049;51.450;-2.516;2023-05-10T07:18:35;14.34;84.70
69776;DHT22;57049;51.450;-2.516;2023-05-10T07:21:01;14.21;84.90
69776;DHT22;57049;51.450;-2.516;2023-05-10T07:23:26;14.26;85.30
69776;DHT22;57049;51.450;-2.516;2023-05-10T07:25:52;14.42;85.16
69776;DHT22;57049;51.450;-2.516;2023-05-10T07:28:18;14.56;85.21
69776;DHT22;57049;51.450;-2.516;2023-05-10T07:30:43;14.59;84.93
69776;DHT22;57049;51.450;-2.516;2023-05-10T07:33:10;14.53;84.75
69776;DHT22;57049;51.450;-2.516;2023-05-10T07:35:36;14.47;85.09
69776;DHT22;57049;51.450;-2.516;2023-05-10T07:38:02;14.33;85.25
69776;DHT22;57049;51.450;-2.516;2023-05-10T07:40:28;14.12;85.48
69776;DHT22;57049;51.450;-2.516;2023-05-10T07:42:53;13.88;86.21
69776;DHT22;57049;51.450;-2.516;2023-05-10T07:45:19;13.74;87.17
69776;DHT22;57049;51.450;-2.516;2023-05-10T07:47:45;13.62;87.37
69776;DHT22;57049;51.450;-2.516;2023-05-10T07:50:10;13.65;87.50
69776;DHT22;57049;51.450;-2.516;2023-05-10T07:52:35;13.70;88.04
69776;DHT22;57049;51.450;-2.516;2023-05-10T07:55:01;13.65;88.56
69776;DHT22;57049;51.450;-2.516;2023-05-10T07:57:26;13.74;88.60
69776;DHT22;57049;51.450;-2.516;2023-05-10T07:59:52;13.83;88.14
69776;DHT22;57049;51.450;-2.516;2023-05-10T08:02:17;13.94;88.44
69776;DHT22;57049;51.450;-2.516;2023-05-10T08:04:43;14.04;87.88
69776;DHT22;57049;51.450;-2.516;2023-05-10T08:07:08;14.01;87.75
69776;DHT22;57049;51.450;-2.516;2023-05-10T08:09:34;14.01;88.19
69776;DHT22;57049;51.450;-2.516;2023-05-10T08:11:59;14.02;88.33
69776;DHT22;57049;51.450;-2.516;2023-05-10T08:14:25;13.97;88.88
69776;DHT22;57049;51.450;-2.516;2023-05-10T08:16:51;13.77;90.68
69776;DHT22;57049;51.450;-2.516;2023-05-10T08:19:16;13.83;90.87
69776;DHT22;57049;51.450;-2.516;2023-05-10T08:21:45;13.67;91.87
69776;DHT22;57049;51.450;-2.516;2023-05-10T08:24:10;13.72;91.87
69776;DHT22;57049;51.450;-2.516;2023-05-10T08:26:36;13.65;91.90
69776;DHT22;57049;51.450;-2.516;2023-05-10T08:29:02;13.60;91.51
69776;DHT22;57049;51.450;-2.516;2023-05-10T08:31:27;13.78;91.70
69776;DHT22;57049;51.450;-2.516;2023-05-10T08:33:53;13.68;91.63
69776;DHT22;57049;51.450;-2.516;2023-05-10T08:36:18;13.86;91.95
69776;DHT22;57049;51.450;-2.516;2023-05-10T08:38:49;14.09;92.01
69776;DHT22;57049;51.450;-2.516;2023-05-10T08:41:15;14.30;91.85
69776;DHT22;57049;51.450;-2.516;2023-05-10T08:43:41;14.49;91.79
69776;DHT22;57049;51.450;-2.516;2023-05-10T08:46:15;14.77;90.54
69776;DHT22;57049;51.450;-2.516;2023-05-10T08:48:46;14.98;89.54
69776;DHT22;57049;51.450;-2.516;2023-05-10T08:51:19;15.00;88.90
69776;DHT22;57049;51.450;-2.516;2023-05-10T08:53:45;15.32;88.59
69776;DHT22;57049;51.450;-2.516;2023-05-10T08:56:11;15.90;87.53
69776;DHT22;57049;51.450;-2.516;2023-05-10T08:58:38;16.26;86.38
69776;DHT22;57049;51.450;-2.516;2023-05-10T09:01:04;16.36;84.61
69776;DHT22;57049;51.450;-2.516;2023-05-10T09:03:30;16.51;84.06
69776;DHT22;57049;51.450;-2.516;2023-05-10T09:05:56;16.74;83.35
69776;DHT22;57049;51.450;-2.516;2023-05-10T09:08:26;16.58;83.03
69776;DHT22;57049;51.450;-2.516;2023-05-10T09:10:52;16.47;82.09
69776;DHT22;57049;51.450;-2.516;2023-05-10T09:13:18;16.00;82.05
69776;DHT22;57049;51.450;-2.516;2023-05-10T09:15:45;16.16;83.25
69776;DHT22;57049;51.450;-2.516;2023-05-10T09:18:11;16.34;82.91
69776;DHT22;57049;51.450;-2.516;2023-05-10T09:20:36;16.26;83.17
69776;DHT22;57049;51.450;-2.516;2023-05-10T09:23:02;16.07;82.87
69776;DHT22;57049;51.450;-2.516;2023-05-10T09:25:27;15.83;83.62
69776;DHT22;57049;51.450;-2.516;2023-05-10T09:27:53;15.87;84.12
69776;DHT22;57049;51.450;-2.516;2023-05-10T09:30:28;15.65;84.42
69776;DHT22;57049;51.450;-2.516;2023-05-10T09:32:55;15.54;84.44
69776;DHT22;57049;51.450;-2.516;2023-05-10T09:35:23;15.39;84.37
69776;DHT22;57049;51.450;-2.516;2023-05-10T09:37:51;15.46;84.32
69776;DHT22;57049;51.450;-2.516;2023-05-10T09:40:18;15.82;84.11
69776;DHT22;57049;51.450;-2.516;2023-05-10T09:45:17;16.60;81.51
69776;DHT22;57049;51.450;-2.516;2023-05-10T09:47:42;16.75;80.91
69776;DHT22;57049;51.450;-2.516;2023-05-10T09:50:09;16.50;80.48
69776;DHT22;57049;51.450;-2.516;2023-05-10T09:55:24;16.88;80.07
69776;DHT22;57049;51.450;-2.516;2023-05-10T09:57:58;16.95;80.11
69776;DHT22;57049;51.450;-2.516;2023-05-10T10:00:24;16.65;79.44
69776;DHT22;57049;51.450;-2.516;2023-05-10T10:02:58;16.46;79.57
69776;DHT22;57049;51.450;-2.516;2023-05-10T10:05:34;16.46;81.44
69776;DHT22;57049;51.450;-2.516;2023-05-10T10:08:02;16.61;81.44
69776;DHT22;57049;51.450;-2.516;2023-05-10T10:10:29;16.91;81.24
69776;DHT22;57049;51.450;-2.516;2023-05-10T10:12:56;17.26;80.35
69776;DHT22;57049;51.450;-2.516;2023-05-10T10:15:22;16.92;76.96
69776;DHT22;57049;51.450;-2.516;2023-05-10T10:17:48;16.56;79.37
69776;DHT22;57049;51.450;-2.516;2023-05-10T10:20:15;16.64;78.82
69776;DHT22;57049;51.450;-2.516;2023-05-10T10:22:41;16.40;77.97
69776;DHT22;57049;51.450;-2.516;2023-05-10T10:25:07;16.13;77.79
69776;DHT22;57049;51.450;-2.516;2023-05-10T10:35:54;17.15;76.14
69776;DHT22;57049;51.450;-2.516;2023-05-10T10:38:20;17.08;75.55
69776;DHT22;57049;51.450;-2.516;2023-05-10T10:40:47;17.01;76.19
69776;DHT22;57049;51.450;-2.516;2023-05-10T10:43:26;16.63;74.93
69776;DHT22;57049;51.450;-2.516;2023-05-10T10:46:17;16.37;77.65
69776;DHT22;57049;51.450;-2.516;2023-05-10T10:49:08;16.34;78.39
69776;DHT22;57049;51.450;-2.516;2023-05-10T10:51:39;16.30;79.06
69776;DHT22;57049;51.450;-2.516;2023-05-10T10:54:11;16.03;78.10
69776;DHT22;57049;51.450;-2.516;2023-05-10T10:56:37;15.85;79.05
69776;DHT22;57049;51.450;-2.516;2023-05-10T10:59:02;16.10;78.87
69776;DHT22;57049;51.450;-2.516;2023-05-10T11:01:33;16.23;78.62
69776;DHT22;57049;51.450;-2.516;2023-05-10T11:06:29;16.67;77.08
69776;DHT22;57049;51.450;-2.516;2023-05-10T11:08:57;16.82;75.87
69776;DHT22;57049;51.450;-2.516;2023-05-10T11:11:23;17.01;75.38
69776;DHT22;57049;51.450;-2.516;2023-05-10T11:13:48;16.98;75.07
69776;DHT22;57049;51.450;-2.516;2023-05-10T11:19:10;17.04;75.23
69776;DHT22;57049;51.450;-2.516;2023-05-10T11:24:14;16.74;76.45
69776;DHT22;57049;51.450;-2.516;2023-05-10T11:26:40;16.64;76.98
69776;DHT22;57049;51.450;-2.516;2023-05-10T11:29:06;16.41;77.29
69776;DHT22;57049;51.450;-2.516;2023-05-10T11:31:31;16.31;78.32
69776;DHT22;57049;51.450;-2.516;2023-05-10T11:33:58;16.30;78.89
69776;DHT22;57049;51.450;-2.516;2023-05-10T11:36:26;16.30;77.52
69776;DHT22;57049;51.450;-2.516;2023-05-10T11:38:53;16.51;76.66
69776;DHT22;57049;51.450;-2.516;2023-05-10T11:41:20;16.82;76.04
69776;DHT22;57049;51.450;-2.516;2023-05-10T11:43:55;17.22;75.39
69776;DHT22;57049;51.450;-2.516;2023-05-10T11:46:23;17.67;75.58
69776;DHT22;57049;51.450;-2.516;2023-05-10T11:48:53;17.98;72.57
69776;DHT22;57049;51.450;-2.516;2023-05-10T11:51:23;18.14;72.08
69776;DHT22;57049;51.450;-2.516;2023-05-10T11:53:50;18.17;72.29
69776;DHT22;57049;51.450;-2.516;2023-05-10T11:56:16;18.41;72.57
69776;DHT22;57049;51.450;-2.516;2023-05-10T11:58:42;18.13;71.13
69776;DHT22;57049;51.450;-2.516;2023-05-10T12:01:08;18.07;71.78
69776;DHT22;57049;51.450;-2.516;2023-05-10T12:03:35;18.31;72.05
69776;DHT22;57049;51.450;-2.516;2023-05-10T12:06:02;18.24;69.97
69776;DHT22;57049;51.450;-2.516;2023-05-10T12:08:29;18.13;69.82
69776;DHT22;57049;51.450;-2.516;2023-05-10T12:11:08;18.08;71.33
69776;DHT22;57049;51.450;-2.516;2023-05-10T12:13:40;17.83;71.18
69776;DHT22;57049;51.450;-2.516;2023-05-10T12:16:32;17.83;71.67
69776;DHT22;57049;51.450;-2.516;2023-05-10T12:18:59;17.86;72.69
69776;DHT22;57049;51.450;-2.516;2023-05-10T12:21:26;18.03;72.18
69776;DHT22;57049;51.450;-2.516;2023-05-10T12:23:58;17.89;71.12
69776;DHT22;57049;51.450;-2.516;2023-05-10T12:26:25;17.86;71.28
69776;DHT22;57049;51.450;-2.516;2023-05-10T12:28:53;17.65;69.05
69776;DHT22;57049;51.450;-2.516;2023-05-10T12:31:18;17.63;70.35
69776;DHT22;57049;51.450;-2.516;2023-05-10T12:33:44;17.79;70.81
69776;DHT22;57049;51.450;-2.516;2023-05-10T12:36:12;17.94;71.19
69776;DHT22;57049;51.450;-2.516;2023-05-10T12:38:41;18.01;70.41
69776;DHT22;57049;51.450;-2.516;2023-05-10T12:41:12;18.01;70.82
69776;DHT22;57049;51.450;-2.516;2023-05-10T12:43:38;18.42;72.26
69776;DHT22;57049;51.450;-2.516;2023-05-10T12:46:14;18.54;71.76
69776;DHT22;57049;51.450;-2.516;2023-05-10T12:48:41;18.88;71.24
69776;DHT22;57049;51.450;-2.516;2023-05-10T12:51:08;18.89;70.77
69776;DHT22;57049;51.450;-2.516;2023-05-10T12:53:35;18.68;69.13
69776;DHT22;57049;51.450;-2.516;2023-05-10T12:56:01;18.66;70.74
69776;DHT22;57049;51.450;-2.516;2023-05-10T12:58:26;18.95;68.88
69776;DHT22;57049;51.450;-2.516;2023-05-10T13:00:52;18.83;67.74
69776;DHT22;57049;51.450;-2.516;2023-05-10T13:03:18;19.47;68.56
69776;DHT22;57049;51.450;-2.516;2023-05-10T13:05:43;19.58;66.55
69776;DHT22;57049;51.450;-2.516;2023-05-10T13:08:09;19.78;65.09
69776;DHT22;57049;51.450;-2.516;2023-05-10T13:10:34;19.65;66.35
69776;DHT22;57049;51.450;-2.516;2023-05-10T13:13:00;19.91;66.03
69776;DHT22;57049;51.450;-2.516;2023-05-10T13:15:26;20.32;66.13
69776;DHT22;57049;51.450;-2.516;2023-05-10T13:17:53;20.22;65.67
69776;DHT22;57049;51.450;-2.516;2023-05-10T13:20:19;20.01;65.41
69776;DHT22;57049;51.450;-2.516;2023-05-10T13:22:45;19.84;66.29
69776;DHT22;57049;51.450;-2.516;2023-05-10T13:25:11;19.87;66.49
69776;DHT22;57049;51.450;-2.516;2023-05-10T13:27:37;19.63;66.46
69776;DHT22;57049;51.450;-2.516;2023-05-10T13:30:03;19.44;64.87
69776;DHT22;57049;51.450;-2.516;2023-05-10T13:32:29;19.46;66.31
69776;DHT22;57049;51.450;-2.516;2023-05-10T13:34:55;19.63;65.05
69776;DHT22;57049;51.450;-2.516;2023-05-10T13:37:20;19.53;66.42
69776;DHT22;57049;51.450;-2.516;2023-05-10T13:39:46;19.31;65.04
69776;DHT22;57049;51.450;-2.516;2023-05-10T13:42:12;19.23;64.96
69776;DHT22;57049;51.450;-2.516;2023-05-10T13:44:37;18.89;66.14
69776;DHT22;57049;51.450;-2.516;2023-05-10T13:47:04;19.24;66.12
69776;DHT22;57049;51.450;-2.516;2023-05-10T13:49:29;19.16;64.19
69776;DHT22;57049;51.450;-2.516;2023-05-10T13:51:55;18.93;64.92
69776;DHT22;57049;51.450;-2.516;2023-05-10T13:54:20;19.23;64.00
69776;DHT22;57049;51.450;-2.516;2023-05-10T13:56:47;19.22;62.83
69776;DHT22;57049;51.450;-2.516;2023-05-10T13:59:13;18.68;64.88
69776;DHT22;57049;51.450;-2.516;2023-05-10T14:01:43;18.92;64.71
69776;DHT22;57049;51.450;-2.516;2023-05-10T14:04:08;18.88;63.87
69776;DHT22;57049;51.450;-2.516;2023-05-10T14:06:38;18.76;63.68
69776;DHT22;57049;51.450;-2.516;2023-05-10T14:09:03;18.37;63.77
69776;DHT22;57049;51.450;-2.516;2023-05-10T14:11:29;18.34;64.93
69776;DHT22;57049;51.450;-2.516;2023-05-10T14:13:54;18.30;65.05
69776;DHT22;57049;51.450;-2.516;2023-05-10T14:16:20;18.58;65.63
69776;DHT22;57049;51.450;-2.516;2023-05-10T14:18:46;18.71;65.32
69776;DHT22;57049;51.450;-2.516;2023-05-10T14:21:12;18.88;64.88
69776;DHT22;57049;51.450;-2.516;2023-05-10T14:23:38;18.64;63.94
69776;DHT22;57049;51.450;-2.516;2023-05-10T14:26:03;18.61;64.06
69776;DHT22;57049;51.450;-2.516;2023-05-10T14:28:29;18.28;63.98
69776;DHT22;57049;51.450;-2.516;2023-05-10T14:30:54;18.13;65.03
69776;DHT22;57049;51.450;-2.516;2023-05-10T14:33:20;18.32;64.17
69776;DHT22;57049;51.450;-2.516;2023-05-10T14:35:46;18.58;64.91
69776;DHT22;57049;51.450;-2.516;2023-05-10T14:38:12;18.73;64.33
69776;DHT22;57049;51.450;-2.516;2023-05-10T14:40:38;18.85;63.42
69776;DHT22;57049;51.450;-2.516;2023-05-10T14:43:03;18.75;62.93
69776;DHT22;57049;51.450;-2.516;2023-05-10T14:45:29;18.82;61.75
69776;DHT22;57049;51.450;-2.516;2023-05-10T14:47:54;18.71;63.25
69776;DHT22;57049;51.450;-2.516;2023-05-10T14:50:20;18.69;64.13
69776;DHT22;57049;51.450;-2.516;2023-05-10T14:52:46;18.37;65.01
69776;DHT22;57049;51.450;-2.516;2023-05-10T14:55:11;18.52;65.81
69776;DHT22;57049;51.450;-2.516;2023-05-10T14:57:37;18.93;65.15
69776;DHT22;57049;51.450;-2.516;2023-05-10T15:00:03;18.77;62.83
69776;DHT22;57049;51.450;-2.516;2023-05-10T15:02:30;18.48;61.88
69776;DHT22;57049;51.450;-2.516;2023-05-10T15:04:55;18.24;64.47
69776;DHT22;57049;51.450;-2.516;2023-05-10T15:07:21;18.35;63.92
69776;DHT22;57049;51.450;-2.516;2023-05-10T15:09:46;18.34;63.52
69776;DHT22;57049;51.450;-2.516;2023-05-10T15:12:12;18.08;63.16
69776;DHT22;57049;51.450;-2.516;2023-05-10T15:14:37;17.91;63.31
69776;DHT22;57049;51.450;-2.516;2023-05-10T15:17:06;17.86;64.86
69776;DHT22;57049;51.450;-2.516;2023-05-10T15:19:32;18.08;65.52
69776;DHT22;57049;51.450;-2.516;2023-05-10T15:21:58;17.93;64.67
69776;DHT22;57049;51.450;-2.516;2023-05-10T15:24:24;17.70;64.21
69776;DHT22;57049;51.450;-2.516;2023-05-10T15:26:49;17.65;66.91
69776;DHT22;57049;51.450;-2.516;2023-05-10T15:29:15;17.57;64.24
69776;DHT22;57049;51.450;-2.516;2023-05-10T15:31:48;17.04;64.91
69776;DHT22;57049;51.450;-2.516;2023-05-10T15:34:15;17.28;65.57
69776;DHT22;57049;51.450;-2.516;2023-05-10T15:36:41;17.59;65.55
69776;DHT22;57049;51.450;-2.516;2023-05-10T15:39:06;17.62;64.91
69776;DHT22;57049;51.450;-2.516;2023-05-10T15:41:32;17.69;65.92
69776;DHT22;57049;51.450;-2.516;2023-05-10T15:43:58;17.62;66.15
69776;DHT22;57049;51.450;-2.516;2023-05-10T15:46:27;17.45;65.69
69776;DHT22;57049;51.450;-2.516;2023-05-10T15:48:53;17.47;65.90
69776;DHT22;57049;51.450;-2.516;2023-05-10T15:51:18;17.39;64.95
69776;DHT22;57049;51.450;-2.516;2023-05-10T15:53:44;17.35;65.01
69776;DHT22;57049;51.450;-2.516;2023-05-10T15:56:10;17.26;65.32